createdAt,value
2019-04-03T00:00:34.515Z,100394.83
2019-04-03T00:03:05.108Z,100401.67
2019-04-03T00:05:35.951Z,100399.94
2019-04-03T00:08:07.028Z,100400.83
2019-04-03T00:10:38.215Z,100394.09
2019-04-03T00:13:10.472Z,100393.40
2019-04-03T00:15:40.797Z,100395.86
2019-04-03T00:18:11.179Z,100398.96
2019-04-03T00:20:41.552Z,100397.50
2019-04-03T00:23:12.024Z,100394.09
2019-04-03T00:25:42.372Z,100388.64
2019-04-03T00:28:12.730Z,100385.51
2019-04-03T00:30:43.202Z,100381.84
2019-04-03T00:33:13.555Z,100378.94
2019-04-03T00:35:43.900Z,100391.78
2019-04-03T00:38:14.315Z,100389.34
2019-04-03T00:40:44.677Z,100393.05
2019-04-03T00:43:15.103Z,100390.84
2019-04-03T00:45:45.486Z,100384.46
2019-04-03T00:48:15.862Z,100384.33
2019-04-03T00:50:46.531Z,100393.64
2019-04-03T00:53:16.911Z,100383.89
2019-04-03T00:55:47.287Z,100387.25
2019-04-03T00:58:41.861Z,100380.14
2019-04-03T01:01:12.512Z,100388.09
2019-04-03T01:03:42.958Z,100384.69
2019-04-03T01:06:16.732Z,100385.19
2019-04-03T01:08:47.205Z,100373.33
2019-04-03T01:11:17.550Z,100372.73
2019-04-03T01:13:47.922Z,100369.82
2019-04-03T01:16:21.062Z,100361.76
2019-04-03T01:18:51.413Z,100367.41
2019-04-03T01:21:23.196Z,100359.61
2019-04-03T01:23:53.560Z,100358.36
2019-04-03T01:26:24.125Z,100363.52
2019-04-03T01:28:54.486Z,100361.56
2019-04-03T01:31:24.955Z,100356.72
2019-04-03T01:33:55.482Z,100359.20
2019-04-03T01:36:27.224Z,100347.91
2019-04-03T01:38:58.768Z,100353.05
2019-04-03T01:41:29.248Z,100352.55
2019-04-03T01:43:59.609Z,100338.09
2019-04-03T01:46:30.278Z,100343.95
2019-04-03T01:49:00.653Z,100336.84
2019-04-03T01:51:31.126Z,100343.79
2019-04-03T01:54:02.892Z,100339.38
2019-04-03T01:56:35.653Z,100341.09
2019-04-03T01:59:08.561Z,100344.73
2019-04-03T02:01:39.193Z,100345.13
2019-04-03T02:04:12.102Z,100349.69
2019-04-03T02:06:43.899Z,100336.63
2019-04-03T02:09:16.033Z,100333.94
2019-04-03T02:11:47.609Z,100332.13
2019-04-03T02:14:21.055Z,100334.39
2019-04-03T02:16:53.217Z,100323.08
2019-04-03T02:19:25.649Z,100318.48
2019-04-03T02:21:58.210Z,100315.53
2019-04-03T02:24:27.746Z,100326.73
2019-04-03T02:26:58.191Z,100316.23
2019-04-03T02:29:28.539Z,100315.98
2019-04-03T02:31:58.904Z,100320.72
2019-04-03T02:34:33.733Z,100311.13
2019-04-03T02:37:01.417Z,100315.63
2019-04-03T02:39:31.804Z,100317.88
2019-04-03T02:42:02.258Z,100318.53
2019-04-03T02:44:32.619Z,100313.12
2019-04-03T02:47:03.053Z,100314.38
2019-04-03T02:49:33.555Z,100314.03
2019-04-03T02:52:03.940Z,100313.02
2019-04-03T02:54:35.773Z,100314.88
2019-04-03T02:57:06.394Z,100309.83
2019-04-03T02:59:36.839Z,100309.92
2019-04-03T03:02:07.195Z,100313.82
2019-04-03T03:04:38.078Z,100309.23
2019-04-03T03:07:08.689Z,100306.42
2019-04-03T03:09:39.666Z,100312.52
2019-04-03T03:12:10.002Z,100308.59
2019-04-03T03:14:40.671Z,100306.77
2019-04-03T03:17:11.249Z,100311.33
2019-04-03T03:19:41.645Z,100297.38
2019-04-03T03:22:11.971Z,100301.45
2019-04-03T03:24:42.349Z,100289.62
2019-04-03T03:27:12.791Z,100291.63
2019-04-03T03:29:43.169Z,100293.05
2019-04-03T03:32:19.787Z,100298.80
2019-04-03T03:34:55.319Z,100295.09
2019-04-03T03:37:17.865Z,100294.54
2019-04-03T03:39:48.385Z,100301.23
2019-04-03T03:42:18.782Z,100303.10
2019-04-03T03:44:49.185Z,100299.33
2019-04-03T03:47:19.572Z,100296.30
2019-04-03T03:49:50.952Z,100293.16
2019-04-03T03:52:21.498Z,100298.21
2019-04-03T03:54:52.529Z,100293.02
2019-04-03T03:57:23.281Z,100296.89
2019-04-03T03:59:54.743Z,100289.55
2019-04-03T04:02:25.124Z,100294.35
2019-04-03T04:04:55.852Z,100287.55
2019-04-03T04:07:26.292Z,100292.30
2019-04-03T04:09:56.775Z,100285.05
2019-04-03T04:12:27.567Z,100285.50
2019-04-03T04:14:58.101Z,100283.85
2019-04-03T04:17:28.755Z,100278.06
2019-04-03T04:20:03.083Z,100286.50
2019-04-03T04:22:31.567Z,100285.00
2019-04-03T04:25:03.543Z,100284.89
2019-04-03T04:27:37.863Z,100283.69
2019-04-03T04:30:06.214Z,100286.55
2019-04-03T04:32:36.744Z,100285.87
2019-04-03T04:35:10.189Z,100293.75
2019-04-03T04:37:40.360Z,100293.22
2019-04-03T04:40:11.164Z,100291.96
2019-04-03T04:42:41.572Z,100287.53
2019-04-03T04:45:12.486Z,100286.27
2019-04-03T04:47:45.788Z,100289.41
2019-04-03T04:50:18.593Z,100287.02
2019-04-03T04:52:49.160Z,100286.81
2019-04-03T04:55:19.660Z,100289.86
2019-04-03T04:57:50.086Z,100292.73
2019-04-03T05:00:20.455Z,100294.89
2019-04-03T05:02:51.487Z,100296.15
2019-04-03T05:05:22.000Z,100291.72
2019-04-03T05:07:52.452Z,100285.72
2019-04-03T05:10:23.142Z,100298.07
2019-04-03T05:12:53.580Z,100287.45
2019-04-03T05:15:24.125Z,100292.70
2019-04-03T05:17:57.100Z,100289.65
2019-04-03T05:20:26.788Z,100288.02
2019-04-03T05:22:57.162Z,100279.91
2019-04-03T05:25:29.292Z,100284.56
2019-04-03T05:27:59.589Z,100288.75
2019-04-03T05:30:30.493Z,100272.59
2019-04-03T05:33:01.957Z,100283.28
2019-04-03T05:35:32.443Z,100277.35
2019-04-03T05:38:02.963Z,100278.69
2019-04-03T05:40:33.489Z,100273.11
2019-04-03T05:43:04.006Z,100278.66
2019-04-03T05:45:35.703Z,100269.62
2019-04-03T05:48:12.597Z,100267.48
2019-04-03T05:50:39.841Z,100270.15
2019-04-03T05:53:10.159Z,100266.69
2019-04-03T05:55:41.431Z,100263.08
2019-04-03T05:58:12.092Z,100268.63
2019-04-03T06:00:43.142Z,100271.37
2019-04-03T06:03:14.032Z,100267.40
2019-04-03T06:05:45.038Z,100276.69
2019-04-03T06:08:16.234Z,100273.06
2019-04-03T06:10:47.242Z,100269.90
2019-04-03T06:13:17.995Z,100271.70
2019-04-03T06:15:48.522Z,100265.83
2019-04-03T06:18:20.870Z,100270.48
2019-04-03T06:20:51.735Z,100272.53
2019-04-03T06:23:22.162Z,100272.91
2019-04-03T06:25:52.692Z,100259.16
2019-04-03T06:28:23.437Z,100261.39
2019-04-03T06:30:56.733Z,100259.75
2019-04-03T06:33:27.543Z,100253.81
2019-04-03T06:35:57.937Z,100251.28
2019-04-03T06:38:28.325Z,100239.72
2019-04-03T06:40:58.944Z,100238.19
2019-04-03T06:43:30.537Z,100239.59
2019-04-03T06:46:01.492Z,100232.05
2019-04-03T06:48:31.983Z,100237.25
2019-04-03T06:51:02.573Z,100230.34
2019-04-03T06:53:34.246Z,100231.70
2019-04-03T06:56:07.882Z,100231.75
2019-04-03T06:58:38.922Z,100233.75
2019-04-03T07:01:08.835Z,100235.98
2019-04-03T07:03:40.200Z,100229.75
2019-04-03T07:06:11.502Z,100228.84
2019-04-03T07:08:42.828Z,100224.04
2019-04-03T07:11:22.833Z,100219.11
2019-04-03T07:13:45.442Z,100216.30
2019-04-03T07:16:16.113Z,100216.31
2019-04-03T07:18:46.624Z,100211.31
2019-04-03T07:21:17.131Z,100215.53
2019-04-03T07:23:47.545Z,100224.90
2019-04-03T07:26:17.930Z,100215.39
2019-04-03T07:28:48.361Z,100212.15
2019-04-03T07:31:18.927Z,100219.52
2019-04-03T07:33:49.424Z,100216.53
2019-04-03T07:36:20.005Z,100212.28
2019-04-03T07:38:50.457Z,100219.36
2019-04-03T07:41:23.315Z,100220.47
2019-04-03T07:43:52.970Z,100212.44
2019-04-03T07:46:23.339Z,100213.76
2019-04-03T07:48:53.687Z,100216.36
2019-04-03T07:51:24.220Z,100211.63
2019-04-03T07:53:54.676Z,100209.84
2019-04-03T07:56:25.818Z,100209.59
2019-04-03T07:58:57.103Z,100213.23
2019-04-03T08:01:27.553Z,100218.92
2019-04-03T08:03:58.229Z,100213.70
2019-04-03T08:06:28.597Z,100211.73
2019-04-03T08:09:07.795Z,100213.33
2019-04-03T08:11:32.772Z,100209.61
2019-04-03T08:14:03.488Z,100212.91
2019-04-03T08:16:34.088Z,100212.55
2019-04-03T08:19:04.640Z,100213.06
2019-04-03T08:21:36.968Z,100216.66
2019-04-03T08:24:08.194Z,100217.01
2019-04-03T08:26:39.202Z,100212.30
2019-04-03T08:29:09.720Z,100209.39
2019-04-03T08:31:43.910Z,100208.84
2019-04-03T08:34:16.818Z,100200.05
2019-04-03T08:36:46.436Z,100205.61
2019-04-03T08:39:17.688Z,100206.05
2019-04-03T08:41:48.697Z,100205.11
2019-04-03T08:44:19.067Z,100198.78
2019-04-03T08:46:49.815Z,100199.50
2019-04-03T08:49:20.389Z,100198.16
2019-04-03T08:51:51.755Z,100197.23
2019-04-03T08:54:22.139Z,100199.32
2019-04-03T08:56:52.775Z,100203.00
2019-04-03T08:59:23.307Z,100192.20
2019-04-03T09:01:55.701Z,100195.70
2019-04-03T09:04:26.075Z,100190.96
2019-04-03T09:06:56.513Z,100187.27
2019-04-03T09:09:29.864Z,100178.23
2019-04-03T09:11:59.495Z,100184.11
2019-04-03T09:14:29.945Z,100181.05
2019-04-03T09:17:02.275Z,100168.64
2019-04-03T09:19:32.640Z,100173.84
2019-04-03T09:22:06.348Z,100162.52
2019-04-03T09:24:36.718Z,100167.02
2019-04-03T09:27:08.944Z,100159.20
2019-04-03T09:29:39.127Z,100156.19
2019-04-03T09:32:09.502Z,100145.94
2019-04-03T09:34:39.878Z,100147.41
2019-04-03T09:37:10.384Z,100137.98
2019-04-03T09:39:44.412Z,100137.34
2019-04-03T09:42:13.857Z,100130.88
2019-04-03T09:44:44.247Z,100137.98
2019-04-03T09:47:14.654Z,100131.97
2019-04-03T09:49:45.093Z,100124.23
2019-04-03T09:52:15.593Z,100124.96
2019-04-03T09:54:46.286Z,100111.09
2019-04-03T09:57:16.760Z,100099.67
2019-04-03T09:59:47.318Z,100109.47
2019-04-03T10:02:19.584Z,100104.99
2019-04-03T10:04:50.090Z,100104.63
2019-04-03T10:07:20.739Z,100101.17
2019-04-03T10:09:53.762Z,100092.02
2019-04-03T10:12:23.878Z,100097.25
2019-04-03T10:14:57.050Z,100086.05
2019-04-03T10:17:28.994Z,100094.85
2019-04-03T10:19:59.326Z,100086.92
2019-04-03T10:22:32.924Z,100085.78
2019-04-03T10:25:06.238Z,100086.22
2019-04-03T10:27:36.940Z,100083.73
2019-04-03T10:30:09.180Z,100081.57
2019-04-03T10:32:39.580Z,100076.74
2019-04-03T10:35:09.988Z,100068.38
2019-04-03T10:37:40.512Z,100065.57
2019-04-03T10:40:11.052Z,100061.17
2019-04-03T10:42:42.766Z,100055.16
2019-04-03T10:45:13.250Z,100055.11
2019-04-03T10:47:44.820Z,100052.31
2019-04-03T10:50:16.539Z,100052.02
2019-04-03T10:52:49.143Z,100052.43
2019-04-03T10:55:20.279Z,100038.52
2019-04-03T10:57:50.602Z,100042.77
2019-04-03T11:00:23.512Z,100040.19
2019-04-03T11:02:53.657Z,100038.66
2019-04-03T11:05:24.181Z,100032.71
2019-04-03T11:07:54.684Z,100027.75
2019-04-03T11:10:26.313Z,100027.75
2019-04-03T11:12:56.930Z,100017.19
2019-04-03T11:15:27.587Z,100020.53
2019-04-03T11:17:58.288Z,100013.55
2019-04-03T11:20:28.848Z,100019.99
2019-04-03T11:23:06.517Z,100012.39
2019-04-03T11:25:31.706Z,100016.22
2019-04-03T11:28:05.042Z,100006.20
2019-04-03T11:30:34.473Z,100020.64
2019-04-03T11:33:06.369Z,100009.19
2019-04-03T11:35:37.123Z,99999.02
2019-04-03T11:38:14.518Z,100005.89
2019-04-03T11:40:39.683Z,99996.55
2019-04-03T11:43:10.058Z,100007.18
2019-04-03T11:45:40.830Z,99999.70
2019-04-03T11:48:11.392Z,99994.75
2019-04-03T11:50:42.030Z,100006.86
2019-04-03T11:53:12.691Z,99989.92
2019-04-03T11:55:43.257Z,99987.10
2019-04-03T11:58:13.626Z,99983.05
2019-04-03T12:00:45.678Z,99989.69
2019-04-03T12:03:16.599Z,99983.64
2019-04-03T12:05:47.544Z,99980.85
2019-04-03T12:08:18.608Z,99981.76
2019-04-03T12:10:49.593Z,99977.56
2019-04-03T12:13:22.083Z,99974.50
2019-04-03T12:15:53.734Z,99971.39
2019-04-03T12:18:25.244Z,99970.16
2019-04-03T12:20:55.981Z,99966.65
2019-04-03T12:23:27.681Z,99955.13
2019-04-03T12:25:58.376Z,99961.92
2019-04-03T12:28:28.902Z,99967.26
2019-04-03T12:30:59.275Z,99964.28
2019-04-03T12:33:29.993Z,99953.70
2019-04-03T12:36:00.795Z,99958.56
2019-04-03T12:38:31.382Z,99952.31
2019-04-03T12:41:04.277Z,99959.44
2019-04-03T12:43:33.931Z,99950.95
2019-04-03T12:46:04.309Z,99948.27
2019-04-03T12:48:34.772Z,99943.86
2019-04-03T12:51:05.451Z,99943.46
2019-04-03T12:53:37.134Z,99950.61
2019-04-03T12:56:07.593Z,99940.08
2019-04-03T12:58:38.550Z,99938.42
2019-04-03T13:01:11.022Z,99940.11
2019-04-03T13:03:41.041Z,99935.88
2019-04-03T13:06:11.497Z,99932.76
2019-04-03T13:08:41.928Z,99927.92
2019-04-03T13:11:12.283Z,99936.95
2019-04-03T13:13:45.978Z,99923.97
2019-04-03T13:16:20.972Z,99919.80
2019-04-03T13:18:50.135Z,99925.67
2019-04-03T13:21:20.722Z,99928.97
2019-04-03T13:23:51.328Z,99923.83
2019-04-03T13:26:24.102Z,99928.27
2019-04-03T13:28:53.862Z,99927.36
2019-04-03T13:31:24.337Z,99922.94
2019-04-03T13:33:54.735Z,99924.87
2019-04-03T13:36:25.433Z,99916.72
2019-04-03T13:38:55.810Z,99923.36
2019-04-03T13:41:26.835Z,99907.55
2019-04-03T13:43:57.776Z,99904.57
2019-04-03T13:46:28.881Z,99906.62
2019-04-03T13:48:59.336Z,99912.97
2019-04-03T13:51:29.700Z,99903.80
2019-04-03T13:54:01.493Z,99903.56
2019-04-03T13:56:31.966Z,99898.67
2019-04-03T13:59:02.666Z,99890.42
2019-04-03T14:01:33.082Z,99896.41
2019-04-03T14:04:04.930Z,99895.03
2019-04-03T14:06:36.219Z,99892.92
2019-04-03T14:09:07.524Z,99887.86
2019-04-03T14:11:37.882Z,99893.16
2019-04-03T14:14:08.328Z,99887.09
2019-04-03T14:16:39.371Z,99880.00
2019-04-03T14:19:11.840Z,99883.20
2019-04-03T14:21:45.233Z,99878.09
2019-04-03T14:24:17.001Z,99867.93
2019-04-03T14:26:48.542Z,99881.80
2019-04-03T14:29:19.234Z,99871.87
2019-04-03T14:31:50.848Z,99876.87
2019-04-03T14:34:21.405Z,99875.48
2019-04-03T14:36:51.765Z,99874.41
2019-04-03T14:39:22.152Z,99879.59
2019-04-03T14:41:54.286Z,99859.83
2019-04-03T14:44:25.073Z,99870.05
2019-04-03T14:46:55.773Z,99868.66
2019-04-03T14:49:26.487Z,99861.70
2019-04-03T14:51:57.194Z,99867.88
2019-04-03T14:54:30.320Z,99867.66
2019-04-03T14:56:59.736Z,99854.61
2019-04-03T14:59:31.145Z,99853.31
2019-04-03T15:02:02.636Z,99864.60
2019-04-03T15:04:36.482Z,99860.47
2019-04-03T15:07:09.214Z,99857.95
2019-04-03T15:09:37.799Z,99862.45
2019-04-03T15:12:08.321Z,99852.84
2019-04-03T15:14:39.032Z,99860.47
2019-04-03T15:17:10.327Z,99847.58
2019-04-03T15:19:41.331Z,99849.23
2019-04-03T15:22:12.565Z,99849.48
2019-04-03T15:24:44.440Z,99839.66
2019-04-03T15:27:15.643Z,99846.27
2019-04-03T15:29:46.327Z,99838.26
2019-04-03T15:32:19.193Z,99843.20
2019-04-03T15:34:50.790Z,99831.00
2019-04-03T15:37:23.594Z,99844.41
2019-04-03T15:39:57.603Z,99837.34
2019-04-03T15:42:26.474Z,99840.74
2019-04-03T15:44:57.847Z,99830.53
2019-04-03T15:47:37.493Z,99820.41
2019-04-03T15:50:00.916Z,99825.44
2019-04-03T15:52:31.511Z,99823.50
2019-04-03T15:55:03.625Z,99828.02
2019-04-03T15:57:34.022Z,99824.57
2019-04-03T16:00:12.549Z,99827.56
2019-04-03T16:02:45.725Z,99830.84
2019-04-03T16:05:15.588Z,99815.67
2019-04-03T16:07:46.099Z,99825.98
2019-04-03T16:10:16.548Z,99822.78
2019-04-03T16:12:47.570Z,99831.03
2019-04-03T16:15:18.282Z,99838.73
2019-04-03T16:17:48.804Z,99824.09
2019-04-03T16:20:19.382Z,99826.50
2019-04-03T16:22:50.424Z,99826.58
2019-04-03T16:25:21.574Z,99819.81
2019-04-03T16:27:53.314Z,99815.58
2019-04-03T16:30:23.768Z,99821.23
2019-04-03T16:32:57.559Z,99820.09
2019-04-03T16:35:28.218Z,99815.84
2019-04-03T16:37:59.126Z,99821.33
2019-04-03T16:40:31.641Z,99815.89
2019-04-03T16:43:02.210Z,99821.06
2019-04-03T16:45:32.832Z,99813.81
2019-04-03T16:48:04.396Z,99822.69
2019-04-03T16:50:36.303Z,99808.63
2019-04-03T16:53:08.036Z,99808.41
2019-04-03T16:55:38.834Z,99813.23
2019-04-03T16:58:09.278Z,99808.78
2019-04-03T17:00:41.372Z,99797.43
2019-04-03T17:03:13.397Z,99809.75
2019-04-03T17:05:45.298Z,99808.91
2019-04-03T17:08:16.201Z,99802.31
2019-04-03T17:10:46.855Z,99802.37
2019-04-03T17:13:18.896Z,99802.52
2019-04-03T17:15:49.953Z,99803.64
2019-04-03T17:18:20.338Z,99793.73
2019-04-03T17:20:51.286Z,99799.91
2019-04-03T17:23:21.780Z,99804.08
2019-04-03T17:25:52.421Z,99797.05
2019-04-03T17:28:26.250Z,99803.46
2019-04-03T17:30:55.959Z,99801.23
2019-04-03T17:33:26.831Z,99805.05
2019-04-03T17:35:58.118Z,99808.95
2019-04-03T17:38:31.510Z,99815.69
2019-04-03T17:41:00.876Z,99818.20
2019-04-03T17:43:32.084Z,99817.01
2019-04-03T17:46:02.732Z,99815.39
2019-04-03T17:48:33.204Z,99819.17
2019-04-03T17:51:03.778Z,99813.19
2019-04-03T17:53:36.728Z,99816.44
2019-04-03T17:56:07.423Z,99822.86
2019-04-03T17:58:37.877Z,99814.35
2019-04-03T18:01:09.214Z,99822.12
2019-04-03T18:03:39.797Z,99824.97
2019-04-03T18:06:10.312Z,99822.97
2019-04-03T18:08:42.489Z,99825.48
2019-04-03T18:11:13.279Z,99814.77
2019-04-03T18:13:44.897Z,99817.49
2019-04-03T18:16:15.474Z,99818.64
2019-04-03T18:18:45.858Z,99818.95
2019-04-03T18:21:17.144Z,99817.69
2019-04-03T18:23:48.194Z,99811.48
2019-04-03T18:26:19.958Z,99824.31
2019-04-03T18:28:50.444Z,99808.86
2019-04-03T18:31:21.028Z,99818.09
2019-04-03T18:33:51.598Z,99819.69
2019-04-03T18:36:22.260Z,99816.63
2019-04-03T18:38:52.727Z,99818.61
2019-04-03T18:41:23.357Z,99811.48
2019-04-03T18:43:54.388Z,99810.92
2019-04-03T18:46:32.070Z,99822.28
2019-04-03T18:49:01.000Z,99822.19
2019-04-03T18:51:30.957Z,99813.66
2019-04-03T18:54:01.774Z,99825.31
2019-04-03T18:56:33.550Z,99816.70
2019-04-03T18:59:04.082Z,99817.83
2019-04-03T19:01:34.593Z,99814.92
2019-04-03T19:04:07.219Z,99814.16
2019-04-03T19:06:38.228Z,99820.15
2019-04-03T19:09:10.405Z,99811.73
2019-04-03T19:11:41.590Z,99815.72
2019-04-03T19:14:12.243Z,99821.81
2019-04-03T19:16:45.219Z,99824.55
2019-04-03T19:19:16.478Z,99827.12
2019-04-03T19:21:47.169Z,99825.75
2019-04-03T19:24:17.571Z,99822.16
2019-04-03T19:26:47.993Z,99830.20
2019-04-03T19:29:19.690Z,99829.94
2019-04-03T19:31:50.395Z,99833.94
2019-04-03T19:34:21.093Z,99827.12
2019-04-03T19:36:51.768Z,99825.66
2019-04-03T19:39:22.539Z,99828.37
2019-04-03T19:41:53.113Z,99824.25
2019-04-03T19:44:23.578Z,99826.75
2019-04-03T19:46:54.537Z,99829.59
2019-04-03T19:49:27.497Z,99829.27
2019-04-03T19:51:57.715Z,99826.63
2019-04-03T19:54:28.502Z,99827.41
2019-04-03T19:57:00.864Z,99820.70
2019-04-03T19:59:34.492Z,99826.63
2019-04-03T20:02:03.594Z,99826.36
2019-04-03T20:04:34.104Z,99822.59
2019-04-03T20:07:06.982Z,99830.05
2019-04-03T20:09:37.703Z,99825.81
2019-04-03T20:12:08.309Z,99825.17
2019-04-03T20:14:38.881Z,99822.36
2019-04-03T20:17:09.596Z,99825.41
2019-04-03T20:19:40.336Z,99817.99
2019-04-03T20:22:10.745Z,99818.52
2019-04-03T20:24:43.425Z,99822.25
2019-04-03T20:27:14.913Z,99828.55
2019-04-03T20:29:45.612Z,99824.70
2019-04-03T20:32:16.125Z,99825.09
2019-04-03T20:34:46.923Z,99825.45
2019-04-03T20:37:17.363Z,99825.50
2019-04-03T20:39:47.777Z,99828.51
2019-04-03T20:42:18.208Z,99830.47
2019-04-03T20:44:48.730Z,99825.66
2019-04-03T20:47:21.015Z,99823.89
2019-04-03T20:49:51.469Z,99823.86
2019-04-03T20:52:21.857Z,99831.52
2019-04-03T20:54:53.757Z,99832.39
2019-04-03T20:57:25.596Z,99831.76
2019-04-03T21:00:01.846Z,99829.59
2019-04-03T21:02:28.733Z,99827.83
2019-04-03T21:04:59.111Z,99824.30
2019-04-03T21:07:29.515Z,99824.02
2019-04-03T21:10:01.952Z,99830.63
2019-04-03T21:12:35.533Z,99831.11
2019-04-03T21:15:08.663Z,99830.14
2019-04-03T21:17:38.833Z,99828.66
2019-04-03T21:20:09.449Z,99828.18
2019-04-03T21:22:39.820Z,99829.55
2019-04-03T21:25:10.172Z,99825.41
2019-04-03T21:27:40.729Z,99824.81
2019-04-03T21:30:12.144Z,99823.45
2019-04-03T21:32:42.631Z,99818.47
2019-04-03T21:35:13.004Z,99818.27
2019-04-03T21:37:43.353Z,99818.47
2019-04-03T21:40:15.267Z,99826.60
2019-04-03T21:42:46.918Z,99817.98
2019-04-03T21:45:17.289Z,99821.15
2019-04-03T21:47:47.695Z,99824.58
2019-04-03T21:50:19.394Z,99820.11
2019-04-03T21:52:53.447Z,99823.03
2019-04-03T21:55:22.433Z,99829.91
2019-04-03T21:57:52.801Z,99827.89
2019-04-03T22:00:40.123Z,99837.12
2019-04-03T22:03:10.576Z,99832.32
2019-04-03T22:05:40.955Z,99830.30
2019-04-03T22:08:12.458Z,99826.02
2019-04-03T22:10:42.956Z,99827.13
2019-04-03T22:13:13.436Z,99824.59
2019-04-03T22:15:45.388Z,99823.42
2019-04-03T22:18:15.977Z,99823.55
2019-04-03T22:20:46.351Z,99817.19
2019-04-03T22:23:16.834Z,99823.93
2019-04-03T22:25:47.307Z,99821.74
2019-04-03T22:28:17.661Z,99818.03
2019-04-03T22:30:48.195Z,99824.52
2019-04-03T22:33:18.566Z,99826.34
2019-04-03T22:35:48.924Z,99828.09
2019-04-03T22:38:19.669Z,99832.87
2019-04-03T22:40:50.049Z,99830.11
2019-04-03T22:43:21.508Z,99832.63
2019-04-03T22:45:52.091Z,99836.52
2019-04-03T22:48:26.810Z,99838.21
2019-04-03T22:50:55.697Z,99833.41
2019-04-03T22:53:26.044Z,99833.73
2019-04-03T22:55:56.670Z,99834.13
2019-04-03T22:58:27.015Z,99835.75
2019-04-03T23:00:59.297Z,99828.23
2019-04-03T23:03:29.753Z,99821.09
2019-04-03T23:06:00.100Z,99825.30
2019-04-03T23:08:30.578Z,99813.77
2019-04-03T23:11:01.533Z,99823.23
2019-04-03T23:13:33.829Z,99821.80
2019-04-03T23:16:04.624Z,99818.30
2019-04-03T23:18:35.262Z,99823.49
2019-04-03T23:21:05.759Z,99815.19
2019-04-03T23:23:36.369Z,99814.67
2019-04-03T23:26:06.945Z,99812.98
2019-04-03T23:28:37.627Z,99803.20
2019-04-03T23:31:11.144Z,99802.48
2019-04-03T23:33:41.919Z,99800.02
2019-04-03T23:36:12.421Z,99801.19
2019-04-03T23:38:42.967Z,99797.23
2019-04-03T23:41:13.475Z,99802.16
2019-04-03T23:43:44.050Z,99792.30
2019-04-03T23:46:14.708Z,99795.61
2019-04-03T23:48:47.009Z,99785.50
2019-04-03T23:51:23.495Z,99786.54
2019-04-03T23:53:50.184Z,99786.48
2019-04-03T23:56:20.665Z,99786.34
2019-04-03T23:58:51.039Z,99784.20
